Time;durP1;ratioP1;P1;durP2;ratioP2;P2;SDS_P1;SDS_P2;PMS_P1;PMS_P2;Temp;Humidity;BMP_temperature;BMP_pressure;BME280_temperature;BME280_humidity;BME280_pressure;Samples;Min_cycle;Max_cycle;Signal;HPM_P1;HPM_P2
2023/06/25 00:00:24;;;;;;;;;;;21.60;54.30;;;;;;6307095;22;19918;-69
2023/06/25 00:02:50;;;;;;;;;;;21.50;54.30;;;;;;6307039;22;19902;-70
2023/06/25 00:05:15;;;;;;;;;;;21.50;54.40;;;;;;6307446;22;20343;-70
2023/06/25 00:07:41;;;;;;;;;;;21.50;54.60;;;;;;6307374;22;19903;-70
2023/06/25 00:10:06;;;;;;;;;;;21.40;54.70;;;;;;6307509;22;20241;-70
2023/06/25 00:12:32;;;;;;;;;;;21.40;54.80;;;;;;6307639;22;19907;-70
2023/06/25 00:14:58;;;;;;;;;;;21.40;54.90;;;;;;6307069;22;19921;-70
2023/06/25 00:17:27;;;;;;;;;;;21.30;54.90;;;;;;6279541;22;19909;-70
2023/06/25 00:19:56;;;;;;;;;;;21.30;55.00;;;;;;6307084;22;19915;-77
2023/06/25 00:22:22;;;;;;;;;;;21.30;55.30;;;;;;6305762;22;20290;-76
2023/06/25 00:24:47;;;;;;;;;;;21.30;55.50;;;;;;6306629;22;19919;-71
2023/06/25 00:27:13;;;;;;;;;;;21.30;55.60;;;;;;6306989;22;20241;-70
2023/06/25 00:29:38;;;;;;;;;;;21.30;55.70;;;;;;6307093;22;19915;-70
2023/06/25 00:32:04;;;;;;;;;;;21.20;55.60;;;;;;6307063;22;19903;-70
2023/06/25 00:34:29;;;;;;;;;;;21.20;55.60;;;;;;6307104;22;19911;-69
2023/06/25 00:36:55;;;;;;;;;;;21.20;55.60;;;;;;6306989;22;19974;-70
2023/06/25 00:39:21;;;;;;;;;;;21.10;55.70;;;;;;6306875;22;19964;-71
2023/06/25 00:41:47;;;;;;;;;;;21.10;55.70;;;;;;6307218;22;19903;-70
2023/06/25 00:44:13;;;;;;;;;;;21.10;55.70;;;;;;6306834;22;19930;-70
2023/06/25 00:46:39;;;;;;;;;;;21.00;55.70;;;;;;6306655;22;19903;-70
2023/06/25 00:49:07;;;;;;;;;;;21.00;55.70;;;;;;6306634;22;20237;-70
2023/06/25 00:51:35;;;;;;;;;;;20.90;55.70;;;;;;6306789;22;19909;-69
2023/06/25 00:54:05;;;;;;;;;;;20.90;55.80;;;;;;6306023;22;19915;-69
2023/06/25 00:56:33;;;;;;;;;;;20.90;56.00;;;;;;6306029;22;19911;-70
2023/06/25 00:59:03;;;;;;;;;;;20.80;56.00;;;;;;6306063;22;19945;-69
2023/06/25 01:01:33;;;;;;;;;;;20.80;56.10;;;;;;6306623;22;19955;-78
2023/06/25 01:04:02;;;;;;;;;;;20.80;56.20;;;;;;6305875;22;19911;-75
2023/06/25 01:06:33;;;;;;;;;;;20.80;56.20;;;;;;6306020;22;20032;-76
2023/06/25 01:08:59;;;;;;;;;;;20.80;56.30;;;;;;6306246;22;20279;-75
2023/06/25 01:11:26;;;;;;;;;;;20.70;56.30;;;;;;6306501;22;19903;-76
2023/06/25 01:13:51;;;;;;;;;;;20.70;56.40;;;;;;6306272;22;20237;-77
2023/06/25 01:16:17;;;;;;;;;;;20.70;56.50;;;;;;6306319;22;19906;-76
2023/06/25 01:18:45;;;;;;;;;;;20.70;56.50;;;;;;6306063;22;19907;-76
2023/06/25 01:21:12;;;;;;;;;;;20.70;56.60;;;;;;6305246;22;19903;-76
2023/06/25 01:23:38;;;;;;;;;;;20.70;56.70;;;;;;6305920;22;19977;-78
2023/06/25 01:26:03;;;;;;;;;;;20.70;56.80;;;;;;6305823;22;20015;-76
2023/06/25 01:28:29;;;;;;;;;;;20.60;56.80;;;;;;6306020;22;19907;-76
2023/06/25 01:30:54;;;;;;;;;;;20.60;56.80;;;;;;6306047;22;19917;-77
2023/06/25 01:33:25;;;;;;;;;;;20.60;56.80;;;;;;6305430;22;19922;-78
2023/06/25 01:35:52;;;;;;;;;;;20.60;56.90;;;;;;6306259;22;19942;-78
2023/06/25 01:38:17;;;;;;;;;;;20.50;57.00;;;;;;6305738;22;19909;-78
2023/06/25 01:40:43;;;;;;;;;;;20.50;57.00;;;;;;6306245;22;19915;-78
2023/06/25 01:43:08;;;;;;;;;;;20.50;57.00;;;;;;6305470;22;19902;-77
2023/06/25 01:45:33;;;;;;;;;;;20.50;57.00;;;;;;6306295;22;19915;-77
2023/06/25 01:47:59;;;;;;;;;;;20.50;57.00;;;;;;6306021;22;19902;-77
2023/06/25 01:50:24;;;;;;;;;;;20.40;57.00;;;;;;6306007;22;19915;-78
2023/06/25 01:52:50;;;;;;;;;;;20.40;57.10;;;;;;6305785;22;20334;-78
2023/06/25 01:55:15;;;;;;;;;;;20.40;57.10;;;;;;6305799;22;19989;-78
2023/06/25 01:57:41;;;;;;;;;;;20.40;57.30;;;;;;6306162;22;19943;-75
2023/06/25 02:00:08;;;;;;;;;;;20.40;57.50;;;;;;6305821;22;20650;-75
2023/06/25 02:02:33;;;;;;;;;;;20.30;57.90;;;;;;6306066;22;19910;-76
2023/06/25 02:04:59;;;;;;;;;;;20.30;57.80;;;;;;6305791;22;20343;-76
2023/06/25 02:07:24;;;;;;;;;;;20.30;57.80;;;;;;6305657;22;19910;-77
2023/06/25 02:09:50;;;;;;;;;;;20.30;57.80;;;;;;6305824;22;20210;-76
2023/06/25 02:12:15;;;;;;;;;;;20.30;57.80;;;;;;6305696;22;19925;-76
2023/06/25 02:14:41;;;;;;;;;;;20.20;57.80;;;;;;6305911;22;20277;-73
2023/06/25 02:17:06;;;;;;;;;;;20.20;57.70;;;;;;6305924;22;19927;-78
2023/06/25 02:19:32;;;;;;;;;;;20.20;57.70;;;;;;6305648;22;20316;-78
2023/06/25 02:21:57;;;;;;;;;;;20.10;57.80;;;;;;6305493;22;19903;-77
2023/06/25 02:24:23;;;;;;;;;;;20.10;57.80;;;;;;6305530;22;19921;-77
2023/06/25 02:26:48;;;;;;;;;;;20.10;57.90;;;;;;6305712;22;19903;-78
2023/06/25 02:29:14;;;;;;;;;;;20.10;58.00;;;;;;6305715;22;19917;-74
2023/06/25 02:31:39;;;;;;;;;;;20.00;58.10;;;;;;6278519;22;19993;-77
2023/06/25 02:34:05;;;;;;;;;;;20.00;58.10;;;;;;6277991;22;20317;-78
2023/06/25 02:36:30;;;;;;;;;;;20.00;58.10;;;;;;6305369;22;19903;-78
2023/06/25 02:38:56;;;;;;;;;;;19.90;58.20;;;;;;6305275;22;19911;-78
2023/06/25 02:41:21;;;;;;;;;;;19.90;58.30;;;;;;6305563;22;19981;-77
2023/06/25 02:43:46;;;;;;;;;;;19.90;58.20;;;;;;6305717;22;19903;-78
2023/06/25 02:46:12;;;;;;;;;;;19.80;58.20;;;;;;6307055;22;19911;-78
2023/06/25 02:48:38;;;;;;;;;;;19.80;58.30;;;;;;6305944;22;20325;-78
2023/06/25 02:51:03;;;;;;;;;;;19.80;58.30;;;;;;6279961;22;20321;-78
2023/06/25 02:53:29;;;;;;;;;;;19.80;58.30;;;;;;6307575;22;19909;-78
2023/06/25 02:55:54;;;;;;;;;;;19.80;58.30;;;;;;6307337;22;19938;-78
2023/06/25 02:58:20;;;;;;;;;;;19.80;58.30;;;;;;6307590;22;20388;-74
2023/06/25 03:00:45;;;;;;;;;;;19.80;58.30;;;;;;6307104;22;19930;-77
2023/06/25 03:03:11;;;;;;;;;;;19.70;58.30;;;;;;6306657;22;19915;-78
2023/06/25 03:05:36;;;;;;;;;;;19.70;58.40;;;;;;6307634;22;20002;-78
2023/06/25 03:08:01;;;;;;;;;;;19.70;58.40;;;;;;6307081;22;19907;-77
2023/06/25 03:10:28;;;;;;;;;;;19.70;58.50;;;;;;6306067;22;19911;-78
2023/06/25 03:12:54;;;;;;;;;;;19.70;58.50;;;;;;6307403;22;19915;-76
2023/06/25 03:15:19;;;;;;;;;;;19.70;58.60;;;;;;6308008;22;19914;-79
2023/06/25 03:17:45;;;;;;;;;;;19.70;58.70;;;;;;6307387;22;19910;-78
2023/06/25 03:20:11;;;;;;;;;;;19.70;58.70;;;;;;6307634;22;20377;-78
2023/06/25 03:22:36;;;;;;;;;;;19.70;58.90;;;;;;6307452;22;19914;-78
2023/06/25 03:25:02;;;;;;;;;;;19.70;59.00;;;;;;6307467;22;19918;-77
2023/06/25 03:27:28;;;;;;;;;;;19.80;59.10;;;;;;6307457;22;20434;-78
2023/06/25 03:29:54;;;;;;;;;;;19.80;59.30;;;;;;6307146;22;19939;-78
2023/06/25 03:32:19;;;;;;;;;;;19.80;59.40;;;;;;6306915;22;20036;-77
2023/06/25 03:34:44;;;;;;;;;;;19.90;59.50;;;;;;6307412;22;19933;-78
2023/06/25 03:37:10;;;;;;;;;;;20.00;59.60;;;;;;6307152;22;19907;-77
2023/06/25 03:39:35;;;;;;;;;;;20.10;59.90;;;;;;6307201;22;19913;-78
2023/06/25 03:42:01;;;;;;;;;;;20.30;59.90;;;;;;6306661;22;19907;-77
2023/06/25 03:44:26;;;;;;;;;;;20.40;60.00;;;;;;6279836;22;20095;-78
2023/06/25 03:46:52;;;;;;;;;;;20.60;60.10;;;;;;6306856;22;19907;-79
2023/06/25 03:49:17;;;;;;;;;;;20.70;60.20;;;;;;6306976;22;20331;-78
2023/06/25 03:51:42;;;;;;;;;;;20.90;60.20;;;;;;6306588;22;19935;-78
2023/06/25 03:54:08;;;;;;;;;;;21.20;60.20;;;;;;6306908;22;19953;-78
2023/06/25 03:56:33;;;;;;;;;;;21.30;60.20;;;;;;6306307;22;19911;-78
2023/06/25 03:58:59;;;;;;;;;;;21.50;60.20;;;;;;6307136;22;19961;-77
2023/06/25 04:01:24;;;;;;;;;;;21.80;60.20;;;;;;6307131;22;19910;-78
2023/06/25 04:03:50;;;;;;;;;;;22.10;60.30;;;;;;6306720;22;19911;-77
2023/06/25 04:06:15;;;;;;;;;;;22.30;60.30;;;;;;6306766;22;20213;-77
2023/06/25 04:08:40;;;;;;;;;;;22.60;60.30;;;;;;6306789;22;20379;-77
2023/06/25 04:11:06;;;;;;;;;;;22.80;60.10;;;;;;6306873;22;19957;-77
2023/06/25 04:13:31;;;;;;;;;;;23.10;60.00;;;;;;6307147;22;19910;-74
2023/06/25 04:15:57;;;;;;;;;;;23.30;60.00;;;;;;6307594;22;19995;-77
2023/06/25 04:18:22;;;;;;;;;;;23.50;59.80;;;;;;6306844;22;20321;-77
2023/06/25 04:20:48;;;;;;;;;;;23.80;59.80;;;;;;6306653;22;20277;-76
2023/06/25 04:23:13;;;;;;;;;;;24.10;59.60;;;;;;6306491;22;20291;-77
2023/06/25 04:25:38;;;;;;;;;;;24.40;59.50;;;;;;6306442;22;20273;-76
2023/06/25 04:28:04;;;;;;;;;;;24.70;59.40;;;;;;6306493;22;19903;-75
2023/06/25 04:30:29;;;;;;;;;;;25.00;59.00;;;;;;6307325;22;19994;-75
2023/06/25 04:32:55;;;;;;;;;;;25.30;58.50;;;;;;6306060;22;19910;-76
2023/06/25 04:35:20;;;;;;;;;;;25.60;58.20;;;;;;6306588;22;20013;-76
2023/06/25 04:37:46;;;;;;;;;;;25.90;57.80;;;;;;6306160;22;19910;-76
2023/06/25 04:40:12;;;;;;;;;;;26.20;57.40;;;;;;6306539;22;19915;-76
2023/06/25 04:42:38;;;;;;;;;;;26.60;56.70;;;;;;6306180;22;19973;-76
2023/06/25 04:45:03;;;;;;;;;;;27.00;56.30;;;;;;6306708;22;20348;-75
2023/06/25 04:47:29;;;;;;;;;;;27.30;55.90;;;;;;6305997;22;20337;-76
2023/06/25 04:49:54;;;;;;;;;;;27.80;55.10;;;;;;6304918;22;19957;-76
2023/06/25 04:52:20;;;;;;;;;;;28.20;54.50;;;;;;6305707;22;19964;-75
2023/06/25 04:54:45;;;;;;;;;;;28.60;54.00;;;;;;6278768;22;19933;-75
2023/06/25 04:57:11;;;;;;;;;;;29.00;53.30;;;;;;6306130;22;19899;-76
2023/06/25 04:59:36;;;;;;;;;;;29.40;52.20;;;;;;6306885;22;19911;-76
2023/06/25 05:02:02;;;;;;;;;;;29.80;51.40;;;;;;6306515;22;20276;-76
2023/06/25 05:04:27;;;;;;;;;;;30.20;50.80;;;;;;6305470;22;19923;-76
2023/06/25 05:06:53;;;;;;;;;;;30.60;49.60;;;;;;6306192;22;19915;-76
2023/06/25 05:09:18;;;;;;;;;;;31.00;49.10;;;;;;6305869;22;19911;-76
2023/06/25 05:11:44;;;;;;;;;;;31.30;47.80;;;;;;6306520;22;19983;-76
2023/06/25 05:14:09;;;;;;;;;;;31.70;45.40;;;;;;6305935;22;19911;-76
2023/06/25 05:16:34;;;;;;;;;;;31.90;45.90;;;;;;6306292;22;19903;-76
2023/06/25 05:19:00;;;;;;;;;;;32.20;44.60;;;;;;6306056;22;20232;-76
2023/06/25 05:21:25;;;;;;;;;;;32.50;44.40;;;;;;6306567;22;19903;-76
2023/06/25 05:23:58;;;;;;;;;;;32.80;43.20;;;;;;6305900;22;19974;-76
2023/06/25 05:26:24;;;;;;;;;;;33.20;42.90;;;;;;6305943;22;19914;-76
2023/06/25 05:28:49;;;;;;;;;;;33.50;42.00;;;;;;6306074;22;19907;-76
2023/06/25 05:31:15;;;;;;;;;;;33.90;41.50;;;;;;6279118;22;19910;-76
2023/06/25 05:33:40;;;;;;;;;;;34.20;40.70;;;;;;6306756;22;19910;-76
2023/06/25 05:36:05;;;;;;;;;;;34.60;40.30;;;;;;6305913;22;19985;-75
2023/06/25 05:38:31;;;;;;;;;;;35.00;39.60;;;;;;6306403;22;20217;-75
2023/06/25 05:40:56;;;;;;;;;;;35.30;39.10;;;;;;6306080;22;20198;-75
2023/06/25 05:43:22;;;;;;;;;;;35.60;38.40;;;;;;6304783;22;19990;-76
2023/06/25 05:45:47;;;;;;;;;;;35.90;38.00;;;;;;6306568;22;19950;-76
2023/06/25 05:48:13;;;;;;;;;;;36.20;37.70;;;;;;6306234;22;19914;-76
2023/06/25 05:50:38;;;;;;;;;;;36.50;37.10;;;;;;6306232;22;19911;-76
2023/06/25 05:53:04;;;;;;;;;;;36.80;36.00;;;;;;6305845;22;19910;-76
2023/06/25 05:55:29;;;;;;;;;;;37.00;35.50;;;;;;6305035;22;20024;-76
2023/06/25 05:57:54;;;;;;;;;;;37.30;34.90;;;;;;6304254;22;19930;-76
2023/06/25 06:00:23;;;;;;;;;;;37.50;34.40;;;;;;6305618;22;21167;-76
2023/06/25 06:02:48;;;;;;;;;;;37.70;33.80;;;;;;6306028;22;19902;-77
2023/06/25 06:05:14;;;;;;;;;;;37.80;33.30;;;;;;6305914;22;20313;-76
2023/06/25 06:07:39;;;;;;;;;;;38.00;33.00;;;;;;6303945;22;19907;-76
2023/06/25 06:10:05;;;;;;;;;;;38.30;32.90;;;;;;6306448;22;19918;-76
2023/06/25 06:12:30;;;;;;;;;;;38.40;31.80;;;;;;6306475;22;19903;-76
2023/06/25 06:14:56;;;;;;;;;;;38.40;31.60;;;;;;6305971;22;19911;-76
2023/06/25 06:17:21;;;;;;;;;;;38.60;31.10;;;;;;6303327;22;19903;-76
2023/06/25 06:19:47;;;;;;;;;;;38.80;30.70;;;;;;6306209;22;20348;-76
2023/06/25 06:22:13;;;;;;;;;;;39.10;30.60;;;;;;6305902;22;20278;-76
2023/06/25 06:24:38;;;;;;;;;;;39.30;30.10;;;;;;6305517;22;20236;-76
2023/06/25 06:27:04;;;;;;;;;;;39.40;29.30;;;;;;6303414;22;20321;-76
2023/06/25 06:29:30;;;;;;;;;;;39.50;29.50;;;;;;6306035;22;19915;-76
2023/06/25 06:31:55;;;;;;;;;;;39.70;29.40;;;;;;6305865;22;19977;-75
2023/06/25 06:34:20;;;;;;;;;;;39.80;29.10;;;;;;6305974;22;19961;-76
2023/06/25 06:36:46;;;;;;;;;;;40.10;29.00;;;;;;6302285;22;20214;-77
2023/06/25 06:39:13;;;;;;;;;;;40.20;28.70;;;;;;6305327;22;20336;-77
2023/06/25 06:41:38;;;;;;;;;;;40.40;28.60;;;;;;6305912;22;19903;-76
2023/06/25 06:44:11;;;;;;;;;;;40.60;28.10;;;;;;6305807;22;19918;-76
2023/06/25 06:46:36;;;;;;;;;;;40.90;28.10;;;;;;6302932;22;19918;-76
2023/06/25 06:49:01;;;;;;;;;;;41.10;27.50;;;;;;6305805;22;20240;-75
2023/06/25 06:51:27;;;;;;;;;;;41.20;27.50;;;;;;6305456;22;20310;-76
2023/06/25 06:53:52;;;;;;;;;;;41.50;27.70;;;;;;6305165;22;20237;-76
2023/06/25 06:56:18;;;;;;;;;;;41.80;27.20;;;;;;6302611;22;19918;-75
2023/06/25 06:58:43;;;;;;;;;;;42.00;26.90;;;;;;6304611;22;19906;-76
2023/06/25 07:01:09;;;;;;;;;;;42.20;26.80;;;;;;6305253;22;19903;-76
2023/06/25 07:03:34;;;;;;;;;;;42.40;26.40;;;;;;6304893;22;19957;-76
2023/06/25 07:05:59;;;;;;;;;;;42.60;26.00;;;;;;6277661;22;20000;-77
2023/06/25 07:08:25;;;;;;;;;;;42.70;25.90;;;;;;6302154;22;19948;-76
2023/06/25 07:10:50;;;;;;;;;;;42.80;25.50;;;;;;6305639;22;19911;-76
2023/06/25 07:13:16;;;;;;;;;;;43.00;25.40;;;;;;6305462;22;19902;-76
2023/06/25 07:15:41;;;;;;;;;;;43.10;25.00;;;;;;6277597;22;19918;-76
2023/06/25 07:18:06;;;;;;;;;;;42.90;25.00;;;;;;6301817;22;19903;-76
2023/06/25 07:20:32;;;;;;;;;;;42.90;24.90;;;;;;6305446;22;19962;-76
2023/06/25 07:22:57;;;;;;;;;;;43.00;24.80;;;;;;6305143;22;20252;-76
2023/06/25 07:25:23;;;;;;;;;;;43.00;24.80;;;;;;6304771;22;19954;-76
2023/06/25 07:27:48;;;;;;;;;;;43.20;24.60;;;;;;6301661;22;19930;-76
2023/06/25 07:30:14;;;;;;;;;;;43.40;24.70;;;;;;6304694;22;19918;-76
2023/06/25 07:32:39;;;;;;;;;;;43.60;24.60;;;;;;6306412;22;19957;-76
2023/06/25 07:35:05;;;;;;;;;;;43.70;24.30;;;;;;6278615;22;19910;-74
2023/06/25 07:37:30;;;;;;;;;;;43.90;24.40;;;;;;6301950;22;19903;-77
2023/06/25 07:39:56;;;;;;;;;;;44.10;24.40;;;;;;6307209;22;19917;-75
2023/06/25 07:42:21;;;;;;;;;;;44.20;24.10;;;;;;6306992;22;19909;-75
2023/06/25 07:44:47;;;;;;;;;;;44.30;23.80;;;;;;6305765;22;20001;-75
2023/06/25 07:47:12;;;;;;;;;;;44.40;24.00;;;;;;6303746;22;19903;-75
2023/06/25 07:49:37;;;;;;;;;;;44.70;23.60;;;;;;6306747;22;19922;-75
2023/06/25 07:52:03;;;;;;;;;;;44.90;23.90;;;;;;6307008;22;19911;-75
2023/06/25 07:54:28;;;;;;;;;;;45.10;23.30;;;;;;6306539;22;19994;-75
2023/06/25 07:56:54;;;;;;;;;;;45.10;23.20;;;;;;6302673;22;19911;-75
2023/06/25 07:59:19;;;;;;;;;;;45.00;23.10;;;;;;6306890;22;19960;-75
2023/06/25 08:01:45;;;;;;;;;;;44.80;23.10;;;;;;6305539;22;19938;-75
2023/06/25 08:04:10;;;;;;;;;;;45.00;23.50;;;;;;6306268;22;19907;-75
2023/06/25 08:06:36;;;;;;;;;;;45.30;23.20;;;;;;6302937;22;20327;-69
2023/06/25 08:09:01;;;;;;;;;;;45.50;23.20;;;;;;6305940;22;19907;-68
2023/06/25 08:11:27;;;;;;;;;;;45.70;23.10;;;;;;6306663;22;19918;-69
2023/06/25 08:13:52;;;;;;;;;;;45.90;22.70;;;;;;6306498;22;20311;-69
2023/06/25 08:16:18;;;;;;;;;;;46.20;22.60;;;;;;6304385;22;19933;-71
2023/06/25 08:18:43;;;;;;;;;;;46.20;22.20;;;;;;6304843;22;19918;-67
2023/06/25 08:21:09;;;;;;;;;;;46.30;22.40;;;;;;6306171;22;19956;-68
2023/06/25 08:23:34;;;;;;;;;;;46.40;22.40;;;;;;6306031;22;19903;-68
2023/06/25 08:26:00;;;;;;;;;;;46.70;22.10;;;;;;6304860;22;19922;-68
2023/06/25 08:28:25;;;;;;;;;;;46.70;21.80;;;;;;6301761;22;19910;-70
2023/06/25 08:30:50;;;;;;;;;;;46.70;21.80;;;;;;6304688;22;19986;-69
2023/06/25 08:33:16;;;;;;;;;;;47.00;22.00;;;;;;6306580;22;19907;-69
2023/06/25 08:35:41;;;;;;;;;;;47.30;21.50;;;;;;6304090;22;19915;-70
2023/06/25 08:38:07;;;;;;;;;;;47.30;21.10;;;;;;6303131;22;19907;-69
2023/06/25 08:40:34;;;;;;;;;;;47.30;20.90;;;;;;6306959;22;19910;-69
2023/06/25 08:43:00;;;;;;;;;;;47.30;20.70;;;;;;6305490;22;19907;-69
2023/06/25 08:45:25;;;;;;;;;;;47.20;20.80;;;;;;6306003;22;19922;-69
2023/06/25 08:47:54;;;;;;;;;;;47.30;20.40;;;;;;6306090;22;20277;-70
2023/06/25 08:50:20;;;;;;;;;;;47.50;20.30;;;;;;6307137;22;20029;-69
2023/06/25 08:52:45;;;;;;;;;;;47.70;19.80;;;;;;6306266;22;20329;-68
2023/06/25 08:55:12;;;;;;;;;;;47.70;19.90;;;;;;6277862;22;20252;-68
2023/06/25 08:57:37;;;;;;;;;;;47.60;19.90;;;;;;6306514;22;20347;-68
2023/06/25 09:00:04;;;;;;;;;;;47.70;19.80;;;;;;6305414;22;19989;-69
2023/06/25 09:02:29;;;;;;;;;;;47.40;19.80;;;;;;6279002;22;20375;-68
2023/06/25 09:05:05;;;;;;;;;;;47.50;20.10;;;;;;6278977;22;19915;-68
2023/06/25 09:07:32;;;;;;;;;;;47.80;20.10;;;;;;6305456;22;19968;-69
2023/06/25 09:09:57;;;;;;;;;;;48.10;19.30;;;;;;6305944;22;19933;-70
2023/06/25 09:12:26;;;;;;;;;;;48.00;18.60;;;;;;6306308;22;20318;-69
2023/06/25 09:14:51;;;;;;;;;;;48.00;18.70;;;;;;6306422;22;19918;-69
2023/06/25 09:17:20;;;;;;;;;;;48.10;18.80;;;;;;6277662;22;20237;-69
2023/06/25 09:19:46;;;;;;;;;;;48.20;19.00;;;;;;6303566;22;19956;-69
2023/06/25 09:22:11;;;;;;;;;;;48.30;18.90;;;;;;6304698;22;19903;-69
2023/06/25 09:24:40;;;;;;;;;;;48.40;18.50;;;;;;6304557;22;19919;-69
2023/06/25 09:27:06;;;;;;;;;;;48.30;18.40;;;;;;6304313;22;19941;-69
2023/06/25 09:29:34;;;;;;;;;;;48.30;18.40;;;;;;6304290;22;19911;-69
2023/06/25 09:32:05;;;;;;;;;;;48.40;18.50;;;;;;6304669;22;19910;-69
2023/06/25 09:34:31;;;;;;;;;;;48.50;17.80;;;;;;6303868;22;19917;-69
2023/06/25 09:36:56;;;;;;;;;;;48.50;17.80;;;;;;6300466;22;19978;-69
2023/06/25 09:39:21;;;;;;;;;;;48.60;17.90;;;;;;6304469;22;19945;-69
2023/06/25 09:41:48;;;;;;;;;;;48.90;17.50;;;;;;6303936;22;20233;-69
2023/06/25 09:44:14;;;;;;;;;;;49.10;17.20;;;;;;6303788;22;19993;-69
2023/06/25 09:46:40;;;;;;;;;;;49.20;16.60;;;;;;6300350;22;19941;-69
2023/06/25 09:49:07;;;;;;;;;;;49.00;16.10;;;;;;6304339;22;20233;-69
2023/06/25 09:51:35;;;;;;;;;;;48.80;16.40;;;;;;6304394;22;19922;-69
2023/06/25 09:54:02;;;;;;;;;;;48.80;16.50;;;;;;6304380;22;20309;-69
2023/06/25 09:56:28;;;;;;;;;;;48.70;16.30;;;;;;6301197;22;19915;-70
2023/06/25 09:58:54;;;;;;;;;;;48.50;16.20;;;;;;6303367;22;19918;-68
2023/06/25 10:01:19;;;;;;;;;;;48.40;16.50;;;;;;6303886;22;19903;-69
2023/06/25 10:03:45;;;;;;;;;;;48.40;16.60;;;;;;6301973;22;19929;-68
2023/06/25 10:06:10;;;;;;;;;;;48.40;16.70;;;;;;6275404;22;19974;-70
2023/06/25 10:08:36;;;;;;;;;;;48.40;16.60;;;;;;6300189;22;19903;-69
2023/06/25 10:11:04;;;;;;;;;;;48.40;16.40;;;;;;6304229;22;20321;-71
2023/06/25 10:13:29;;;;;;;;;;;48.30;16.30;;;;;;6276632;22;19903;-69
2023/06/25 10:16:03;;;;;;;;;;;48.20;16.60;;;;;;6304583;22;20228;-69
2023/06/25 10:18:29;;;;;;;;;;;48.20;16.60;;;;;;6301466;22;20317;-69
2023/06/25 10:20:56;;;;;;;;;;;48.10;16.40;;;;;;6304944;22;19911;-69
2023/06/25 10:23:25;;;;;;;;;;;47.80;16.40;;;;;;6300529;22;19914;-69
2023/06/25 10:25:55;;;;;;;;;;;47.70;16.30;;;;;;6304773;22;20232;-69
2023/06/25 10:28:27;;;;;;;;;;;47.50;16.50;;;;;;6300286;22;19903;-69
2023/06/25 10:30:53;;;;;;;;;;;47.40;16.30;;;;;;6305613;22;20348;-68
2023/06/25 10:33:18;;;;;;;;;;;47.30;16.70;;;;;;6304954;22;19935;-68
2023/06/25 10:35:46;;;;;;;;;;;47.10;16.50;;;;;;6304797;22;19918;-69
2023/06/25 10:38:12;;;;;;;;;;;47.00;16.60;;;;;;6300741;22;20358;-69
2023/06/25 10:40:39;;;;;;;;;;;47.10;16.70;;;;;;6305238;22;19915;-69
2023/06/25 10:43:05;;;;;;;;;;;47.20;16.70;;;;;;6277770;22;19909;-71
2023/06/25 10:45:30;;;;;;;;;;;47.20;16.80;;;;;;6305119;22;19946;-69
2023/06/25 10:48:03;;;;;;;;;;;47.30;16.80;;;;;;6301305;22;19903;-69
2023/06/25 10:50:29;;;;;;;;;;;47.30;16.70;;;;;;6305740;22;20680;-68
2023/06/25 10:52:55;;;;;;;;;;;47.20;16.90;;;;;;6277974;22;20415;-68
2023/06/25 10:55:20;;;;;;;;;;;47.30;17.10;;;;;;6305313;22;19915;-68
2023/06/25 10:57:48;;;;;;;;;;;47.40;17.10;;;;;;6301130;22;19903;-68
2023/06/25 11:00:13;;;;;;;;;;;47.50;17.30;;;;;;6305740;22;19993;-69
2023/06/25 11:02:39;;;;;;;;;;;47.80;17.40;;;;;;6305301;22;19957;-69
2023/06/25 11:05:04;;;;;;;;;;;47.80;16.40;;;;;;6305610;22;19922;-68
2023/06/25 11:07:30;;;;;;;;;;;47.70;16.60;;;;;;6302803;22;19930;-68
2023/06/25 11:09:55;;;;;;;;;;;47.50;16.90;;;;;;6306961;22;19915;-69
2023/06/25 11:12:21;;;;;;;;;;;47.40;16.90;;;;;;6280179;22;19964;-67
2023/06/25 11:14:46;;;;;;;;;;;47.50;17.10;;;;;;6307235;22;19911;-68
2023/06/25 11:17:15;;;;;;;;;;;47.70;16.90;;;;;;6302737;22;19902;-69
2023/06/25 11:19:41;;;;;;;;;;;47.80;16.60;;;;;;6307528;22;19914;-69
2023/06/25 11:22:07;;;;;;;;;;;47.90;16.60;;;;;;6307702;22;19903;-69
2023/06/25 11:24:33;;;;;;;;;;;48.00;16.50;;;;;;6307369;22;19915;-69
2023/06/25 11:26:58;;;;;;;;;;;48.10;16.50;;;;;;6302704;22;20667;-69
2023/06/25 11:29:34;;;;;;;;;;;48.20;15.90;;;;;;6307069;22;19911;-69
2023/06/25 11:31:59;;;;;;;;;;;48.20;16.00;;;;;;6307435;22;19907;-69
2023/06/25 11:34:25;;;;;;;;;;;48.20;15.30;;;;;;6307021;22;19925;-69
2023/06/25 11:36:51;;;;;;;;;;;47.90;16.00;;;;;;6302693;22;19914;-68
2023/06/25 11:39:16;;;;;;;;;;;47.80;16.20;;;;;;6306755;22;20275;-67
2023/06/25 11:41:42;;;;;;;;;;;47.70;16.40;;;;;;6279775;22;19929;-69
2023/06/25 11:44:17;;;;;;;;;;;47.60;16.60;;;;;;6307007;22;20383;-69
2023/06/25 11:46:43;;;;;;;;;;;47.60;16.40;;;;;;6302854;22;20012;-71
2023/06/25 11:49:09;;;;;;;;;;;47.40;16.40;;;;;;6307026;22;19918;-68
2023/06/25 11:51:34;;;;;;;;;;;47.20;16.60;;;;;;6307428;22;19903;-68
2023/06/25 11:54:00;;;;;;;;;;;47.20;16.80;;;;;;6279460;22;19922;-68
2023/06/25 11:56:25;;;;;;;;;;;47.10;16.60;;;;;;6303557;22;20403;-70
2023/06/25 11:58:51;;;;;;;;;;;46.70;16.30;;;;;;6304990;22;19986;-69
2023/06/25 12:01:17;;;;;;;;;;;46.30;16.60;;;;;;6306684;22;19903;-68
2023/06/25 12:03:43;;;;;;;;;;;46.20;16.90;;;;;;6307057;22;19953;-69
2023/06/25 12:06:08;;;;;;;;;;;46.20;17.10;;;;;;6306154;22;19906;-69
2023/06/25 12:08:33;;;;;;;;;;;46.10;17.40;;;;;;6302473;22;19930;-68
2023/06/25 12:10:59;;;;;;;;;;;46.20;17.50;;;;;;6306414;22;20317;-68
2023/06/25 12:13:24;;;;;;;;;;;46.20;17.50;;;;;;6306598;22;19926;-68
2023/06/25 12:15:50;;;;;;;;;;;46.30;18.00;;;;;;6278093;22;19917;-69
2023/06/25 12:18:15;;;;;;;;;;;46.50;17.60;;;;;;6301167;22;19981;-70
2023/06/25 12:20:41;;;;;;;;;;;46.60;17.00;;;;;;6307251;22;19925;-69
2023/06/25 12:23:06;;;;;;;;;;;46.50;17.30;;;;;;6279223;22;19930;-68
2023/06/25 12:25:31;;;;;;;;;;;46.40;16.90;;;;;;6306780;22;20229;-68
2023/06/25 12:27:57;;;;;;;;;;;46.30;17.20;;;;;;6274592;22;19948;-68
2023/06/25 12:30:22;;;;;;;;;;;46.20;17.60;;;;;;6306777;22;19934;-67
2023/06/25 12:32:48;;;;;;;;;;;46.30;17.50;;;;;;6306614;22;19909;-68
2023/06/25 12:35:13;;;;;;;;;;;46.40;17.80;;;;;;6306750;22;20240;-68
2023/06/25 12:37:39;;;;;;;;;;;46.30;17.40;;;;;;6301722;22;19902;-69
2023/06/25 12:40:08;;;;;;;;;;;46.20;17.50;;;;;;6306567;22;20017;-69
2023/06/25 12:42:34;;;;;;;;;;;46.00;17.70;;;;;;6306764;22;19979;-68
2023/06/25 12:44:59;;;;;;;;;;;45.60;17.70;;;;;;6306482;22;20334;-68
2023/06/25 12:47:25;;;;;;;;;;;45.30;18.00;;;;;;6301777;22;19903;-69
2023/06/25 12:49:50;;;;;;;;;;;45.30;18.10;;;;;;6306276;22;19917;-69
2023/06/25 12:52:16;;;;;;;;;;;45.30;18.40;;;;;;6306740;22;19907;-70
2023/06/25 12:54:42;;;;;;;;;;;45.20;18.20;;;;;;6306236;22;19911;-70
2023/06/25 12:57:08;;;;;;;;;;;45.00;18.30;;;;;;6301885;22;20286;-69
2023/06/25 12:59:33;;;;;;;;;;;45.10;18.30;;;;;;6306213;22;19921;-69
2023/06/25 13:01:59;;;;;;;;;;;45.20;18.30;;;;;;6306379;22;19982;-70
2023/06/25 13:04:24;;;;;;;;;;;45.20;18.20;;;;;;6278818;22;20233;-70
2023/06/25 13:06:50;;;;;;;;;;;45.30;18.00;;;;;;6302424;22;20399;-72
2023/06/25 13:09:15;;;;;;;;;;;45.20;17.90;;;;;;6306057;22;19907;-69
2023/06/25 13:11:40;;;;;;;;;;;45.20;18.00;;;;;;6306252;22;19911;-70
2023/06/25 13:14:06;;;;;;;;;;;45.00;18.00;;;;;;6306198;22;19955;-69
2023/06/25 13:16:31;;;;;;;;;;;44.70;18.00;;;;;;6302771;22;19956;-69
2023/06/25 13:18:57;;;;;;;;;;;44.30;18.20;;;;;;6304308;22;19907;-69
2023/06/25 13:21:22;;;;;;;;;;;43.90;18.30;;;;;;6305812;22;19913;-70
2023/06/25 13:23:48;;;;;;;;;;;43.80;18.40;;;;;;6306166;22;19903;-69
2023/06/25 13:26:13;;;;;;;;;;;43.80;18.90;;;;;;6304198;22;19921;-71
2023/06/25 13:28:38;;;;;;;;;;;43.90;19.10;;;;;;6303366;22;19903;-68
2023/06/25 13:31:04;;;;;;;;;;;44.00;19.00;;;;;;6305703;22;19914;-69
2023/06/25 13:33:29;;;;;;;;;;;44.10;19.00;;;;;;6306092;22;20245;-69
2023/06/25 13:35:55;;;;;;;;;;;44.20;19.10;;;;;;6278618;22;20040;-69
2023/06/25 13:38:21;;;;;;;;;;;44.00;19.00;;;;;;6301325;22;19910;-70
2023/06/25 13:40:48;;;;;;;;;;;43.70;19.20;;;;;;6278477;22;19914;-69
2023/06/25 13:43:13;;;;;;;;;;;43.40;19.50;;;;;;6305848;22;19907;-68
2023/06/25 13:45:39;;;;;;;;;;;43.50;19.50;;;;;;6305527;22;19911;-68
2023/06/25 13:48:05;;;;;;;;;;;43.30;19.50;;;;;;6301214;22;19918;-68
2023/06/25 13:50:30;;;;;;;;;;;43.00;19.60;;;;;;6306194;22;19907;-68
2023/06/25 13:52:55;;;;;;;;;;;42.70;20.00;;;;;;6278547;22;19910;-69
2023/06/25 13:55:21;;;;;;;;;;;42.50;19.80;;;;;;6305312;22;19915;-68
2023/06/25 13:57:46;;;;;;;;;;;42.20;20.10;;;;;;6301470;22;19914;-69
2023/06/25 14:00:12;;;;;;;;;;;42.00;20.50;;;;;;6305450;22;19918;-69
2023/06/25 14:02:38;;;;;;;;;;;41.80;20.50;;;;;;6306016;22;19978;-68
2023/06/25 14:05:03;;;;;;;;;;;41.50;20.70;;;;;;6305954;22;19968;-69
2023/06/25 14:07:29;;;;;;;;;;;41.50;21.00;;;;;;6301214;22;19934;-69